createdAt,value
2018-08-23T00:00:06.046Z,24.80
2018-08-23T00:02:34.929Z,24.80
2018-08-23T00:05:02.619Z,24.80
2018-08-23T00:07:29.969Z,24.70
2018-08-23T00:10:00.638Z,24.70
2018-08-23T00:12:37.045Z,24.70
2018-08-23T00:15:04.554Z,24.70
2018-08-23T00:17:36.543Z,24.70
2018-08-23T00:20:05.426Z,24.70
2018-08-23T00:22:32.779Z,24.60
2018-08-23T00:25:00.151Z,24.60
2018-08-23T00:27:31.586Z,24.60
2018-08-23T00:29:58.971Z,24.60
2018-08-23T00:32:26.331Z,24.60
2018-08-23T00:34:53.690Z,24.60
2018-08-23T00:37:21.053Z,24.50
2018-08-23T00:39:48.410Z,24.50
2018-08-23T00:42:15.819Z,24.50
2018-08-23T00:45:01.768Z,24.50
2018-08-23T00:47:33.053Z,24.50
2018-08-23T00:50:00.596Z,24.50
2018-08-23T00:52:39.678Z,24.40
2018-08-23T00:55:17.154Z,24.40
2018-08-23T00:57:45.731Z,24.40
2018-08-23T01:00:18.910Z,24.30
2018-08-23T01:02:47.879Z,24.30
2018-08-23T01:05:20.367Z,24.30
2018-08-23T01:07:48.179Z,24.30
2018-08-23T01:10:15.698Z,24.30
2018-08-23T01:12:49.385Z,24.30
2018-08-23T01:15:16.743Z,24.30
2018-08-23T01:17:45.293Z,24.20
2018-08-23T01:20:12.627Z,24.20
2018-08-23T01:22:51.466Z,24.20
2018-08-23T01:25:18.862Z,24.20
2018-08-23T01:27:46.267Z,24.20
2018-08-23T01:30:13.608Z,24.20
2018-08-23T01:32:40.971Z,24.20
2018-08-23T01:35:09.294Z,24.10
2018-08-23T01:37:39.183Z,24.20
2018-08-23T01:40:07.921Z,24.10
2018-08-23T01:42:36.418Z,24.10
2018-08-23T01:45:05.237Z,24.10
2018-08-23T01:47:55.147Z,24.10
2018-08-23T01:50:23.101Z,24.10
2018-08-23T01:52:51.677Z,24.00
2018-08-23T01:55:19.913Z,24.00
2018-08-23T01:57:47.460Z,24.00
2018-08-23T02:00:19.148Z,24.00
2018-08-23T02:02:46.870Z,24.00
2018-08-23T02:05:14.233Z,23.60
2018-08-23T02:07:41.618Z,23.90
2018-08-23T02:10:09.018Z,23.90
2018-08-23T02:12:36.378Z,23.90
2018-08-23T02:15:05.979Z,23.90
2018-08-23T02:17:35.648Z,23.90
2018-08-23T02:20:03.151Z,23.90
2018-08-23T02:22:30.657Z,23.80
2018-08-23T02:24:58.066Z,23.80
2018-08-23T02:27:25.409Z,23.80
2018-08-23T02:29:52.741Z,23.80
2018-08-23T02:32:20.048Z,23.80
2018-08-23T02:34:48.197Z,23.70
2018-08-23T02:37:16.612Z,23.70
2018-08-23T02:39:44.577Z,23.70
2018-08-23T02:42:13.697Z,23.70
2018-08-23T02:44:41.802Z,23.70
2018-08-23T02:47:09.339Z,23.30
2018-08-23T02:49:36.715Z,23.70
2018-08-23T02:52:04.495Z,23.70
2018-08-23T02:54:32.148Z,23.70
2018-08-23T02:57:00.095Z,23.60
2018-08-23T02:59:28.222Z,23.60
2018-08-23T03:01:55.566Z,23.60
2018-08-23T03:04:23.967Z,23.60
2018-08-23T03:06:53.825Z,23.60
2018-08-23T03:09:24.981Z,23.60
2018-08-23T03:11:53.778Z,23.50
2018-08-23T03:14:22.174Z,23.60
2018-08-23T03:16:53.794Z,23.50
2018-08-23T03:19:21.093Z,23.50
2018-08-23T03:21:59.282Z,23.50
2018-08-23T03:24:26.669Z,23.50
2018-08-23T03:26:54.276Z,23.50
2018-08-23T03:29:21.689Z,23.50
2018-08-23T03:31:49.109Z,23.50
2018-08-23T03:34:16.526Z,23.50
2018-08-23T03:36:43.862Z,23.70
2018-08-23T03:39:11.203Z,23.40
2018-08-23T03:41:38.610Z,23.40
2018-08-23T03:44:16.547Z,23.40
2018-08-23T03:46:50.897Z,23.40
2018-08-23T03:49:23.465Z,23.40
2018-08-23T03:51:50.902Z,23.40
2018-08-23T03:54:18.194Z,23.40
2018-08-23T03:56:56.990Z,23.40
2018-08-23T03:59:24.334Z,23.30
2018-08-23T04:01:51.815Z,23.40
2018-08-23T04:04:19.186Z,23.30
2018-08-23T04:06:46.562Z,23.30
2018-08-23T04:09:13.941Z,23.30
2018-08-23T04:11:41.352Z,23.20
2018-08-23T04:14:08.701Z,23.20
2018-08-23T04:16:36.401Z,23.30
2018-08-23T04:19:03.883Z,23.20
2018-08-23T04:21:31.219Z,23.20
2018-08-23T04:23:58.709Z,23.20
2018-08-23T04:26:27.046Z,23.20
2018-08-23T04:28:54.413Z,23.20
2018-08-23T04:31:21.810Z,23.20
2018-08-23T04:33:49.246Z,23.20
2018-08-23T04:36:26.559Z,23.20
2018-08-23T04:38:58.991Z,23.10
2018-08-23T04:41:27.054Z,23.10
2018-08-23T04:43:58.431Z,23.10
2018-08-23T04:46:25.802Z,23.10
2018-08-23T04:48:53.278Z,23.10
2018-08-23T04:51:20.761Z,23.10
2018-08-23T04:53:48.099Z,23.10
2018-08-23T04:56:15.507Z,23.00
2018-08-23T04:58:42.853Z,23.00
2018-08-23T05:01:10.261Z,23.00
2018-08-23T05:03:37.622Z,23.00
2018-08-23T05:06:05.091Z,23.00
2018-08-23T05:08:32.516Z,23.00
2018-08-23T05:11:00.037Z,23.00
2018-08-23T05:13:27.606Z,23.00
2018-08-23T05:15:55.107Z,23.00
2018-08-23T05:18:22.503Z,23.00
2018-08-23T05:20:49.937Z,23.00
2018-08-23T05:23:18.252Z,23.00
2018-08-23T05:25:45.518Z,23.00
2018-08-23T05:28:18.345Z,23.00
2018-08-23T05:30:46.396Z,22.90
2018-08-23T05:33:16.940Z,23.00
2018-08-23T05:35:44.591Z,23.00
2018-08-23T05:38:12.579Z,23.00
2018-08-23T05:40:52.388Z,23.00
2018-08-23T05:43:20.222Z,22.90
2018-08-23T05:45:49.167Z,23.00
2018-08-23T05:48:28.647Z,23.00
2018-08-23T05:50:56.309Z,23.00
2018-08-23T05:53:23.813Z,23.00
2018-08-23T05:55:55.372Z,23.00
2018-08-23T05:58:27.106Z,23.00
2018-08-23T06:00:54.544Z,23.00
2018-08-23T06:03:21.941Z,22.90
2018-08-23T06:05:49.870Z,23.00
2018-08-23T06:08:17.334Z,23.10
2018-08-23T06:10:49.593Z,23.10
2018-08-23T06:13:17.408Z,23.10
2018-08-23T06:15:46.809Z,23.10
2018-08-23T06:18:16.138Z,23.20
2018-08-23T06:20:43.597Z,23.20
2018-08-23T06:23:11.238Z,23.20
2018-08-23T06:25:38.984Z,23.20
2018-08-23T06:28:23.229Z,23.20
2018-08-23T06:30:54.187Z,23.20
2018-08-23T06:33:39.420Z,23.20
2018-08-23T06:36:08.144Z,23.20
2018-08-23T06:38:36.225Z,23.30
2018-08-23T06:41:05.018Z,23.30
2018-08-23T06:43:33.099Z,23.30
2018-08-23T06:46:01.102Z,23.30
2018-08-23T06:48:28.643Z,23.30
2018-08-23T06:50:57.131Z,23.30
2018-08-23T06:53:30.852Z,23.30
2018-08-23T06:55:58.271Z,23.40
2018-08-23T06:58:25.615Z,23.40
2018-08-23T07:00:53.032Z,23.40
2018-08-23T07:03:20.482Z,23.40
2018-08-23T07:05:47.882Z,23.40
2018-08-23T07:08:15.210Z,23.40
2018-08-23T07:10:42.626Z,23.40
2018-08-23T07:13:10.169Z,23.50
2018-08-23T07:15:39.843Z,23.50
2018-08-23T07:18:10.374Z,23.50
2018-08-23T07:20:37.749Z,23.50
2018-08-23T07:23:15.494Z,23.50
2018-08-23T07:25:44.099Z,23.50
2018-08-23T07:28:11.940Z,23.50
2018-08-23T07:30:39.322Z,23.60
2018-08-23T07:33:06.752Z,23.60
2018-08-23T07:35:34.083Z,23.60
2018-08-23T07:38:01.696Z,23.60
2018-08-23T07:40:29.054Z,23.60
2018-08-23T07:42:56.491Z,23.60
2018-08-23T07:45:24.095Z,23.60
2018-08-23T07:47:52.933Z,23.70
2018-08-23T07:50:20.286Z,23.70
2018-08-23T07:52:49.259Z,23.70
2018-08-23T07:55:16.515Z,23.70
2018-08-23T07:57:44.122Z,23.70
2018-08-23T08:00:32.791Z,23.70
2018-08-23T08:03:00.151Z,23.80
2018-08-23T08:05:28.583Z,23.80
2018-08-23T08:07:56.306Z,23.80
2018-08-23T08:10:23.716Z,23.80
2018-08-23T08:12:51.904Z,23.80
2018-08-23T08:15:19.454Z,23.80
2018-08-23T08:17:46.718Z,23.90
2018-08-23T08:20:14.253Z,23.90
2018-08-23T08:22:41.699Z,23.90
2018-08-23T08:25:14.721Z,23.90
2018-08-23T08:27:42.160Z,23.90
2018-08-23T08:30:11.219Z,23.90
2018-08-23T08:32:38.625Z,23.90
2018-08-23T08:35:10.781Z,24.00
2018-08-23T08:37:38.452Z,23.90
2018-08-23T08:40:07.599Z,24.00
2018-08-23T08:42:35.054Z,24.00
2018-08-23T08:45:09.834Z,24.00
2018-08-23T08:47:38.210Z,24.10
2018-08-23T08:50:05.803Z,24.10
2018-08-23T08:52:33.698Z,24.10
2018-08-23T08:55:01.149Z,24.10
2018-08-23T08:57:31.202Z,24.10
2018-08-23T08:59:58.934Z,24.10
2018-08-23T09:02:28.939Z,24.20
2018-08-23T09:04:56.620Z,24.20
2018-08-23T09:07:28.954Z,24.20
2018-08-23T09:09:56.442Z,24.20
2018-08-23T09:12:23.774Z,24.30
2018-08-23T09:14:51.233Z,24.30
2018-08-23T09:17:35.642Z,24.30
2018-08-23T09:20:12.291Z,24.30
2018-08-23T09:22:50.059Z,24.30
2018-08-23T09:25:21.936Z,24.30
2018-08-23T09:27:49.972Z,24.40
2018-08-23T09:30:23.129Z,24.40
2018-08-23T09:32:50.570Z,24.40
2018-08-23T09:35:18.068Z,24.40
2018-08-23T09:37:46.126Z,24.50
2018-08-23T09:40:13.509Z,24.40
2018-08-23T09:42:40.854Z,24.50
2018-08-23T09:45:13.299Z,24.50
2018-08-23T09:47:40.895Z,24.50
2018-08-23T09:50:08.344Z,24.50
2018-08-23T09:52:39.606Z,24.50
2018-08-23T09:55:08.112Z,24.60
2018-08-23T09:57:36.008Z,24.60
2018-08-23T10:00:05.016Z,24.60
2018-08-23T10:02:38.466Z,24.60
2018-08-23T10:05:06.818Z,24.60
2018-08-23T10:07:39.948Z,24.70
2018-08-23T10:10:13.173Z,24.70
2018-08-23T10:12:46.417Z,24.70
2018-08-23T10:15:19.660Z,24.70
2018-08-23T10:17:52.653Z,24.70
2018-08-23T10:20:25.620Z,24.70
2018-08-23T10:23:00.168Z,24.70
2018-08-23T10:25:40.867Z,24.70
2018-08-23T10:28:11.198Z,24.80
2018-08-23T10:30:38.788Z,24.80
2018-08-23T10:33:06.214Z,24.80
2018-08-23T10:35:34.106Z,24.80
2018-08-23T10:38:01.644Z,24.80
2018-08-23T10:40:29.151Z,24.90
2018-08-23T10:42:56.825Z,24.90
2018-08-23T10:45:24.251Z,24.80
2018-08-23T10:47:57.434Z,24.80
2018-08-23T10:50:25.048Z,24.80
2018-08-23T10:52:52.641Z,24.80
2018-08-23T10:55:20.117Z,24.80
2018-08-23T10:57:47.453Z,24.80
2018-08-23T11:00:14.924Z,24.80
2018-08-23T11:02:42.260Z,24.80
2018-08-23T11:05:09.651Z,24.80
2018-08-23T11:07:43.291Z,24.80
2018-08-23T11:10:16.313Z,24.80
2018-08-23T11:12:49.692Z,24.80
2018-08-23T11:15:22.685Z,24.80
2018-08-23T11:17:55.924Z,24.80
2018-08-23T11:20:27.057Z,24.80
2018-08-23T11:22:54.460Z,24.90
2018-08-23T11:25:22.777Z,24.90
2018-08-23T11:27:50.399Z,24.90
2018-08-23T11:30:18.457Z,24.90
2018-08-23T11:32:46.053Z,24.90
2018-08-23T11:35:13.630Z,25.00
2018-08-23T11:37:40.882Z,25.00
2018-08-23T11:40:08.472Z,25.00
2018-08-23T11:42:35.967Z,25.00
2018-08-23T11:45:03.917Z,25.00
2018-08-23T11:47:31.326Z,25.00
2018-08-23T11:49:58.646Z,25.00
2018-08-23T11:52:26.062Z,25.10
2018-08-23T11:54:53.663Z,25.10
2018-08-23T11:57:21.047Z,25.20
2018-08-23T11:59:48.551Z,25.10
2018-08-23T12:02:15.973Z,25.20
2018-08-23T12:04:43.422Z,25.20
2018-08-23T12:07:10.766Z,25.20
2018-08-23T12:09:38.124Z,25.20
2018-08-23T12:12:05.813Z,25.20
2018-08-23T12:14:33.257Z,25.20
2018-08-23T12:17:00.789Z,25.20
2018-08-23T12:19:28.313Z,25.20
2018-08-23T12:21:55.891Z,25.20
2018-08-23T12:24:23.326Z,25.30
2018-08-23T12:26:50.647Z,25.30
2018-08-23T12:29:18.242Z,25.30
2018-08-23T12:31:45.741Z,25.30
2018-08-23T12:34:13.441Z,25.30
2018-08-23T12:36:47.138Z,25.30
2018-08-23T12:39:20.582Z,25.30
2018-08-23T12:41:54.087Z,25.20
2018-08-23T12:44:21.783Z,25.30
2018-08-23T12:46:53.729Z,25.30
2018-08-23T12:49:21.356Z,25.40
2018-08-23T12:51:48.699Z,25.40
2018-08-23T12:54:16.206Z,25.40
2018-08-23T12:56:44.056Z,25.40
2018-08-23T12:59:11.383Z,25.40
2018-08-23T13:01:38.798Z,25.50
2018-08-23T13:04:06.240Z,25.50
2018-08-23T13:06:33.719Z,25.50
2018-08-23T13:09:01.110Z,25.50
2018-08-23T13:11:28.443Z,25.50
2018-08-23T13:13:55.780Z,25.50
2018-08-23T13:16:23.168Z,25.50
2018-08-23T13:18:50.752Z,25.50
2018-08-23T13:21:18.188Z,25.50
2018-08-23T13:23:46.606Z,25.50
2018-08-23T13:26:14.189Z,25.50
2018-08-23T13:28:41.587Z,25.60
2018-08-23T13:31:09.055Z,25.60
2018-08-23T13:33:36.437Z,25.60
2018-08-23T13:36:04.438Z,25.70
2018-08-23T13:38:31.703Z,25.70
2018-08-23T13:40:59.051Z,25.80
2018-08-23T13:43:26.627Z,25.80
2018-08-23T13:45:53.978Z,25.80
2018-08-23T13:48:21.518Z,25.80
2018-08-23T13:50:49.091Z,25.80
2018-08-23T13:53:16.630Z,25.90
2018-08-23T13:55:44.044Z,25.90
2018-08-23T13:58:11.354Z,25.90
2018-08-23T14:00:39.503Z,25.90
2018-08-23T14:03:07.674Z,25.90
2018-08-23T14:05:35.542Z,25.90
2018-08-23T14:08:03.394Z,25.90
2018-08-23T14:10:31.143Z,25.90
2018-08-23T14:12:58.634Z,26.00
2018-08-23T14:15:31.810Z,26.00
2018-08-23T14:17:59.505Z,26.10
2018-08-23T14:20:26.887Z,26.10
2018-08-23T14:22:54.673Z,26.10
2018-08-23T14:25:22.083Z,26.10
2018-08-23T14:27:49.485Z,26.10
2018-08-23T14:30:17.387Z,26.10
2018-08-23T14:32:44.710Z,26.20
2018-08-23T14:35:12.183Z,26.20
2018-08-23T14:37:39.883Z,26.20
2018-08-23T14:40:07.374Z,26.10
2018-08-23T14:42:34.914Z,26.10
2018-08-23T14:45:02.546Z,26.10
2018-08-23T14:47:35.625Z,26.20
2018-08-23T14:50:03.092Z,26.20
2018-08-23T14:52:30.423Z,26.20
2018-08-23T14:54:57.751Z,26.20
2018-08-23T14:57:31.161Z,26.20
2018-08-23T14:59:58.537Z,26.10
2018-08-23T15:02:25.902Z,26.10
2018-08-23T15:04:53.250Z,26.10
2018-08-23T15:07:22.750Z,26.00
2018-08-23T15:09:50.395Z,26.10
2018-08-23T15:12:17.875Z,26.10
2018-08-23T15:14:45.195Z,26.20
2018-08-23T15:17:12.622Z,26.20
2018-08-23T15:19:40.294Z,26.30
2018-08-23T15:22:08.060Z,26.30
2018-08-23T15:24:35.443Z,26.40
2018-08-23T15:27:03.423Z,26.40
2018-08-23T15:29:30.910Z,26.40
2018-08-23T15:31:58.278Z,26.40
2018-08-23T15:34:25.693Z,26.40
2018-08-23T15:36:53.457Z,26.30
2018-08-23T15:39:20.858Z,26.30
2018-08-23T15:41:48.273Z,26.40
2018-08-23T15:44:15.708Z,26.30
2018-08-23T15:46:44.393Z,26.30
2018-08-23T15:49:12.100Z,26.30
2018-08-23T15:51:40.033Z,26.40
2018-08-23T15:54:07.906Z,26.50
2018-08-23T15:56:36.129Z,26.70
2018-08-23T15:59:03.568Z,27.10
2018-08-23T16:01:31.379Z,26.80
2018-08-23T16:03:58.850Z,27.00
2018-08-23T16:06:26.615Z,27.10
2018-08-23T16:08:53.981Z,27.10
2018-08-23T16:11:23.485Z,27.20
2018-08-23T16:13:51.282Z,27.30
2018-08-23T16:16:24.405Z,27.40
2018-08-23T16:18:57.875Z,27.40
2018-08-23T16:21:31.149Z,27.40
2018-08-23T16:23:58.869Z,27.30
2018-08-23T16:26:32.093Z,27.30
2018-08-23T16:28:59.887Z,27.20
2018-08-23T16:31:27.267Z,27.00
2018-08-23T16:33:54.787Z,27.00
2018-08-23T16:36:22.211Z,26.90
2018-08-23T16:38:49.762Z,26.80
2018-08-23T16:41:17.377Z,26.80
2018-08-23T16:43:44.875Z,26.80
2018-08-23T16:46:12.587Z,26.70
2018-08-23T16:48:40.174Z,26.60
2018-08-23T16:51:07.711Z,26.60
2018-08-23T16:53:35.513Z,26.60
2018-08-23T16:56:03.320Z,26.60
2018-08-23T16:58:30.933Z,26.60
2018-08-23T17:00:58.510Z,26.60
2018-08-23T17:03:25.930Z,26.60
2018-08-23T17:05:53.374Z,26.60
2018-08-23T17:08:21.099Z,26.60
2018-08-23T17:10:48.591Z,26.60
2018-08-23T17:13:21.876Z,26.60
2018-08-23T17:15:54.976Z,26.50
2018-08-23T17:18:22.498Z,26.60
2018-08-23T17:20:49.842Z,26.50
2018-08-23T17:23:17.380Z,26.50
2018-08-23T17:25:45.596Z,26.50
2018-08-23T17:28:13.014Z,26.50
2018-08-23T17:30:40.484Z,26.50
2018-08-23T17:33:09.077Z,26.50
2018-08-23T17:35:37.017Z,26.40
2018-08-23T17:38:05.734Z,26.40
2018-08-23T17:40:33.678Z,26.30
2018-08-23T17:43:02.079Z,26.30
2018-08-23T17:45:29.794Z,26.20
2018-08-23T17:47:57.133Z,26.10
2018-08-23T17:50:24.622Z,26.10
2018-08-23T17:52:52.009Z,26.10
2018-08-23T17:55:19.486Z,26.00
2018-08-23T17:57:46.838Z,26.00
2018-08-23T18:00:14.207Z,26.00
2018-08-23T18:02:41.650Z,25.90
2018-08-23T18:05:09.123Z,25.90
2018-08-23T18:07:36.733Z,25.90
2018-08-23T18:10:04.558Z,25.90
2018-08-23T18:12:32.859Z,25.80
2018-08-23T18:15:00.301Z,25.80
2018-08-23T18:17:27.635Z,25.80
2018-08-23T18:19:55.115Z,25.80
2018-08-23T18:22:22.589Z,25.80
2018-08-23T18:24:50.017Z,25.80
2018-08-23T18:27:17.651Z,25.80
2018-08-23T18:29:45.034Z,25.80
2018-08-23T18:32:12.552Z,25.80
2018-08-23T18:34:39.849Z,25.70
2018-08-23T18:37:07.249Z,25.70
2018-08-23T18:39:34.658Z,25.60
2018-08-23T18:42:02.117Z,25.60
2018-08-23T18:44:29.565Z,25.60
2018-08-23T18:46:56.997Z,25.60
2018-08-23T18:49:24.354Z,25.60
2018-08-23T18:51:51.691Z,25.60
2018-08-23T18:54:19.096Z,25.50
2018-08-23T18:56:46.634Z,25.60
2018-08-23T18:59:13.990Z,25.60
2018-08-23T19:01:41.512Z,25.50
2018-08-23T19:04:09.011Z,25.50
2018-08-23T19:06:37.320Z,25.50
2018-08-23T19:09:09.838Z,25.50
2018-08-23T19:11:37.454Z,25.50
2018-08-23T19:14:05.971Z,25.50
2018-08-23T19:16:39.022Z,25.40
2018-08-23T19:19:06.652Z,25.50
2018-08-23T19:21:34.007Z,25.40
2018-08-23T19:24:01.442Z,25.40
2018-08-23T19:26:28.793Z,25.40
2018-08-23T19:28:56.201Z,25.40
2018-08-23T19:31:23.562Z,25.40
2018-08-23T19:33:50.851Z,25.40
2018-08-23T19:36:18.276Z,25.40
2018-08-23T19:38:45.578Z,25.40
2018-08-23T19:41:13.107Z,25.40
2018-08-23T19:43:40.499Z,25.40
2018-08-23T19:46:13.610Z,25.40
2018-08-23T19:48:41.646Z,25.40
2018-08-23T19:51:08.964Z,25.40
2018-08-23T19:53:36.457Z,25.40
2018-08-23T19:56:04.417Z,25.40
2018-08-23T19:58:31.809Z,25.40
2018-08-23T20:00:59.431Z,25.40
2018-08-23T20:03:27.110Z,25.30
2018-08-23T20:05:54.747Z,25.30
2018-08-23T20:08:22.291Z,25.30
2018-08-23T20:10:49.748Z,25.30
2018-08-23T20:13:17.524Z,25.30
2018-08-23T20:15:44.851Z,25.30
2018-08-23T20:18:12.229Z,25.20
2018-08-23T20:20:39.599Z,25.20
2018-08-23T20:23:07.238Z,25.20
2018-08-23T20:25:34.729Z,25.10
2018-08-23T20:28:02.271Z,25.10
2018-08-23T20:30:29.623Z,25.10
2018-08-23T20:32:57.355Z,25.10
2018-08-23T20:35:24.734Z,25.10
2018-08-23T20:37:52.149Z,25.10
2018-08-23T20:40:19.757Z,25.10
2018-08-23T20:42:47.350Z,25.00
2018-08-23T20:45:15.070Z,25.00
2018-08-23T20:47:42.578Z,25.00
2018-08-23T20:50:10.322Z,25.00
2018-08-23T20:52:37.835Z,25.00
2018-08-23T20:55:05.543Z,25.00
2018-08-23T20:57:32.887Z,25.00
2018-08-23T21:00:00.248Z,25.00
2018-08-23T21:02:27.801Z,24.90
2018-08-23T21:04:55.200Z,25.00
2018-08-23T21:07:22.745Z,24.90
2018-08-23T21:09:50.251Z,24.90
2018-08-23T21:12:18.236Z,24.90
2018-08-23T21:14:45.674Z,24.80
2018-08-23T21:17:13.068Z,24.80
2018-08-23T21:19:40.610Z,24.80
2018-08-23T21:22:08.178Z,24.80
2018-08-23T21:24:35.534Z,24.80
2018-08-23T21:27:02.910Z,24.80
2018-08-23T21:29:30.346Z,24.80
2018-08-23T21:31:57.706Z,24.80
2018-08-23T21:34:25.052Z,24.70
2018-08-23T21:36:52.409Z,24.70
2018-08-23T21:39:19.979Z,24.70
2018-08-23T21:41:47.317Z,24.70
2018-08-23T21:44:14.615Z,24.70
2018-08-23T21:46:42.610Z,24.70
2018-08-23T21:49:10.090Z,24.70
2018-08-23T21:51:37.502Z,24.70
2018-08-23T21:54:05.047Z,24.70
2018-08-23T21:56:32.436Z,24.70
2018-08-23T21:58:59.841Z,24.60
2018-08-23T22:01:27.503Z,24.60
2018-08-23T22:03:54.939Z,24.60
2018-08-23T22:06:22.264Z,24.60
2018-08-23T22:08:49.976Z,24.60
2018-08-23T22:11:17.545Z,24.70
2018-08-23T22:13:45.339Z,24.60
2018-08-23T22:16:12.805Z,24.60
2018-08-23T22:18:40.171Z,24.60
2018-08-23T22:21:07.639Z,24.60
2018-08-23T22:23:35.007Z,24.60
2018-08-23T22:26:02.339Z,24.60
2018-08-23T22:28:29.721Z,24.60
2018-08-23T22:30:57.233Z,24.60
2018-08-23T22:33:25.157Z,24.60
2018-08-23T22:35:52.474Z,24.60
2018-08-23T22:38:19.894Z,24.60
2018-08-23T22:40:47.214Z,24.60
2018-08-23T22:43:14.526Z,24.50
2018-08-23T22:45:41.987Z,24.50
2018-08-23T22:48:09.381Z,24.50
2018-08-23T22:50:36.733Z,24.40
2018-08-23T22:53:04.693Z,24.40
2018-08-23T22:55:32.058Z,24.30
2018-08-23T22:57:59.375Z,24.30
2018-08-23T23:00:32.626Z,24.30
2018-08-23T23:03:00.062Z,24.50
2018-08-23T23:05:27.427Z,24.30
2018-08-23T23:07:57.989Z,24.30
2018-08-23T23:10:25.661Z,24.20
2018-08-23T23:12:53.036Z,24.20
2018-08-23T23:15:24.522Z,24.20
2018-08-23T23:17:51.872Z,24.20
2018-08-23T23:20:19.318Z,24.20
2018-08-23T23:22:46.903Z,24.20
2018-08-23T23:25:20.354Z,24.10
2018-08-23T23:27:53.743Z,24.20
2018-08-23T23:30:27.643Z,24.10
2018-08-23T23:32:55.030Z,24.10
2018-08-23T23:35:22.408Z,24.10
2018-08-23T23:37:49.766Z,24.10
2018-08-23T23:40:17.174Z,24.10
2018-08-23T23:42:44.527Z,24.10
2018-08-23T23:45:11.942Z,24.00
2018-08-23T23:47:39.354Z,24.00
2018-08-23T23:50:06.902Z,23.90
2018-08-23T23:52:34.267Z,23.90
2018-08-23T23:55:01.807Z,23.90
2018-08-23T23:57:29.283Z,23.80
2018-08-23T23:59:56.592Z,23.60
